Time;durP1;ratioP1;P1;durP2;ratioP2;P2;SDS_P1;SDS_P2;PMS_P1;PMS_P2;Temp;Humidity;BMP_temperature;BMP_pressure;BME280_temperature;BME280_humidity;BME280_pressure;Samples;Min_cycle;Max_cycle;Signal;HPM_P1;HPM_P2
2023/07/10 00:00:34;;;;;;;;;;;24.60;88.40;;;;;;5098904;28;19994;-50
2023/07/10 00:02:59;;;;;;;;;;;24.60;88.40;;;;;;5117518;28;19954;-51
2023/07/10 00:05:24;;;;;;;;;;;24.60;88.50;;;;;;5116722;28;19915;-52
2023/07/10 00:07:50;;;;;;;;;;;24.60;88.50;;;;;;5116634;28;19912;-51
2023/07/10 00:10:16;;;;;;;;;;;24.60;89.00;;;;;;5116906;28;20290;-51
2023/07/10 00:12:43;;;;;;;;;;;24.60;88.50;;;;;;5116573;28;19908;-52
2023/07/10 00:15:12;;;;;;;;;;;24.60;88.40;;;;;;5116862;28;19915;-53
2023/07/10 00:17:38;;;;;;;;;;;24.60;88.50;;;;;;5098507;28;19914;-50
2023/07/10 00:20:13;;;;;;;;;;;24.60;88.40;;;;;;5116454;28;19963;-52
2023/07/10 00:22:39;;;;;;;;;;;24.60;88.50;;;;;;5116416;28;19908;-52
2023/07/10 00:25:05;;;;;;;;;;;24.60;88.50;;;;;;5116723;28;19907;-51
2023/07/10 00:27:30;;;;;;;;;;;24.60;88.50;;;;;;5116573;28;20274;-51
2023/07/10 00:29:56;;;;;;;;;;;24.60;88.40;;;;;;5116567;28;19908;-50
2023/07/10 00:32:21;;;;;;;;;;;24.60;88.40;;;;;;5116506;28;20342;-51
2023/07/10 00:34:46;;;;;;;;;;;24.60;88.50;;;;;;5098087;28;19919;-49
2023/07/10 00:37:12;;;;;;;;;;;24.60;89.00;;;;;;5115254;28;19916;-54
2023/07/10 00:39:38;;;;;;;;;;;24.60;88.50;;;;;;5116708;28;20361;-52
2023/07/10 00:42:22;;;;;;;;;;;24.60;88.30;;;;;;5098114;28;19907;-52
2023/07/10 00:44:52;;;;;;;;;;;24.60;88.40;;;;;;5115745;28;19926;-53
2023/07/10 00:47:26;;;;;;;;;;;24.60;88.50;;;;;;5116499;28;19912;-51
2023/07/10 00:49:52;;;;;;;;;;;24.60;88.50;;;;;;5116045;28;20056;-50
2023/07/10 00:52:38;;;;;;;;;;;24.60;88.40;;;;;;5115855;28;19961;-54
2023/07/10 00:55:26;;;;;;;;;;;24.60;88.40;;;;;;5115906;28;20375;-52
2023/07/10 00:58:18;;;;;;;;;;;24.60;88.40;;;;;;5116293;28;19908;-53
2023/07/10 01:00:59;;;;;;;;;;;24.60;88.50;;;;;;5084144;28;19908;-53
2023/07/10 01:03:24;;;;;;;;;;;24.60;88.60;;;;;;5115811;28;19991;-50
2023/07/10 01:05:50;;;;;;;;;;;24.60;88.60;;;;;;5116135;28;20343;-53
2023/07/10 01:08:15;;;;;;;;;;;24.60;88.50;;;;;;5115530;28;19908;-49
2023/07/10 01:10:41;;;;;;;;;;;24.60;88.70;;;;;;5097542;28;19908;-52
2023/07/10 01:13:06;;;;;;;;;;;24.60;88.50;;;;;;5115399;28;19912;-53
2023/07/10 01:15:32;;;;;;;;;;;24.70;88.70;;;;;;5115966;28;20297;-50
2023/07/10 01:17:58;;;;;;;;;;;24.60;88.80;;;;;;5115410;28;19907;-53
2023/07/10 01:20:27;;;;;;;;;;;24.60;88.70;;;;;;5115666;28;19908;-53
2023/07/10 01:22:53;;;;;;;;;;;24.60;88.70;;;;;;5115550;28;20266;-49
2023/07/10 01:25:19;;;;;;;;;;;24.60;88.70;;;;;;5115506;28;19961;-53
2023/07/10 01:27:44;;;;;;;;;;;24.60;88.70;;;;;;5115455;28;19917;-50
2023/07/10 01:30:39;;;;;;;;;;;24.60;88.80;;;;;;5115131;28;19916;-53
2023/07/10 01:33:05;;;;;;;;;;;24.60;88.70;;;;;;5097464;28;19912;-53
2023/07/10 01:35:31;;;;;;;;;;;24.70;88.70;;;;;;5097125;28;19923;-50
2023/07/10 01:37:57;;;;;;;;;;;24.60;88.70;;;;;;5115618;28;19912;-48
2023/07/10 01:40:28;;;;;;;;;;;24.70;88.80;;;;;;5115492;28;20342;-51
2023/07/10 01:42:58;;;;;;;;;;;24.70;88.80;;;;;;5115312;28;19915;-51
2023/07/10 01:45:23;;;;;;;;;;;24.60;88.70;;;;;;5096670;28;19929;-50
2023/07/10 01:47:52;;;;;;;;;;;24.60;88.80;;;;;;5115276;28;19978;-51
2023/07/10 01:50:19;;;;;;;;;;;24.60;89.20;;;;;;5114774;28;19908;-53
2023/07/10 01:52:44;;;;;;;;;;;24.60;88.70;;;;;;5114646;28;19915;-53
2023/07/10 01:55:11;;;;;;;;;;;24.60;88.80;;;;;;5115012;28;19916;-52
2023/07/10 01:57:36;;;;;;;;;;;24.60;88.90;;;;;;5114974;28;19908;-52
2023/07/10 02:00:02;;;;;;;;;;;24.60;88.80;;;;;;5114860;28;19958;-51
2023/07/10 02:02:28;;;;;;;;;;;24.70;88.90;;;;;;5114847;28;19912;-50
2023/07/10 02:04:53;;;;;;;;;;;24.70;88.90;;;;;;5114775;28;19961;-52
2023/07/10 02:07:19;;;;;;;;;;;24.70;89.00;;;;;;5114477;28;19915;-51
2023/07/10 02:09:44;;;;;;;;;;;24.70;88.90;;;;;;5114701;28;19915;-52
2023/07/10 02:12:09;;;;;;;;;;;24.70;89.00;;;;;;5114461;28;19929;-50
2023/07/10 02:14:35;;;;;;;;;;;24.70;88.90;;;;;;5114607;28;19912;-52
2023/07/10 02:17:00;;;;;;;;;;;24.70;89.00;;;;;;5114418;28;19939;-51
2023/07/10 02:19:26;;;;;;;;;;;24.70;89.00;;;;;;5096190;28;20006;-53
2023/07/10 02:21:51;;;;;;;;;;;24.70;88.90;;;;;;5114984;28;19908;-49
2023/07/10 02:24:17;;;;;;;;;;;24.70;89.00;;;;;;5096334;28;20007;-53
2023/07/10 02:26:42;;;;;;;;;;;24.70;89.00;;;;;;5114612;28;19915;-51
2023/07/10 02:29:08;;;;;;;;;;;24.70;89.10;;;;;;5114557;28;19908;-53
2023/07/10 02:31:33;;;;;;;;;;;24.70;89.10;;;;;;5114569;28;19955;-52
2023/07/10 02:33:59;;;;;;;;;;;24.70;89.00;;;;;;5114455;28;19966;-52
2023/07/10 02:36:26;;;;;;;;;;;24.70;89.00;;;;;;5096252;28;20351;-49
2023/07/10 02:38:51;;;;;;;;;;;24.70;89.00;;;;;;5114211;28;19947;-54
2023/07/10 02:41:16;;;;;;;;;;;24.70;89.00;;;;;;5114222;28;20294;-53
2023/07/10 02:43:42;;;;;;;;;;;24.70;88.90;;;;;;5114167;28;19911;-52
2023/07/10 02:46:07;;;;;;;;;;;24.70;89.00;;;;;;5113923;28;19920;-51
2023/07/10 02:48:33;;;;;;;;;;;24.70;89.00;;;;;;5114335;28;19954;-53
2023/07/10 02:51:00;;;;;;;;;;;24.70;89.10;;;;;;5096147;28;19908;-53
2023/07/10 02:53:26;;;;;;;;;;;24.70;89.10;;;;;;5114150;28;20359;-51
2023/07/10 02:55:51;;;;;;;;;;;24.70;89.10;;;;;;5113986;28;19919;-52
2023/07/10 02:58:17;;;;;;;;;;;24.70;89.10;;;;;;5114300;28;20320;-50
2023/07/10 03:00:42;;;;;;;;;;;24.70;89.10;;;;;;5116142;28;19907;-53
2023/07/10 03:03:08;;;;;;;;;;;24.70;89.20;;;;;;5118317;28;19993;-54
2023/07/10 03:05:33;;;;;;;;;;;24.70;89.30;;;;;;5118207;28;20006;-50
2023/07/10 03:07:59;;;;;;;;;;;24.70;89.20;;;;;;5104150;28;19918;-53
2023/07/10 03:10:24;;;;;;;;;;;24.70;89.30;;;;;;5096635;28;20015;-55
2023/07/10 03:12:50;;;;;;;;;;;24.70;89.30;;;;;;5096518;28;19913;-53
2023/07/10 03:15:15;;;;;;;;;;;24.70;89.40;;;;;;5079207;28;19912;-53
2023/07/10 03:17:41;;;;;;;;;;;24.70;89.50;;;;;;5097638;28;19908;-50
2023/07/10 03:20:07;;;;;;;;;;;24.70;89.50;;;;;;5097880;28;19916;-52
2023/07/10 03:22:33;;;;;;;;;;;24.70;89.50;;;;;;5097435;28;19909;-53
2023/07/10 03:24:58;;;;;;;;;;;24.70;89.60;;;;;;5097770;28;20332;-52
2023/07/10 03:27:24;;;;;;;;;;;24.70;89.60;;;;;;5097229;28;19915;-53
2023/07/10 03:29:50;;;;;;;;;;;24.70;89.60;;;;;;5079088;28;19950;-52
2023/07/10 03:32:16;;;;;;;;;;;24.70;89.60;;;;;;5096968;28;19948;-52
2023/07/10 03:34:42;;;;;;;;;;;24.70;89.30;;;;;;5096770;28;19934;-51
2023/07/10 03:37:07;;;;;;;;;;;24.70;89.50;;;;;;5096819;28;19958;-51
2023/07/10 03:39:33;;;;;;;;;;;24.70;89.50;;;;;;5079058;28;20002;-51
2023/07/10 03:41:59;;;;;;;;;;;24.70;89.50;;;;;;5097165;28;19908;-53
2023/07/10 03:44:24;;;;;;;;;;;24.70;89.50;;;;;;5096730;28;19927;-54
2023/07/10 03:46:50;;;;;;;;;;;24.70;89.50;;;;;;5097148;28;20009;-53
2023/07/10 03:49:17;;;;;;;;;;;24.70;89.40;;;;;;5096884;28;19908;-53
2023/07/10 03:51:42;;;;;;;;;;;24.70;89.40;;;;;;5078631;28;19908;-50
2023/07/10 03:54:08;;;;;;;;;;;24.70;88.90;;;;;;5096396;28;20358;-52
2023/07/10 03:56:34;;;;;;;;;;;24.70;88.70;;;;;;5096841;28;20286;-53
2023/07/10 03:58:59;;;;;;;;;;;24.70;88.70;;;;;;5096795;28;20307;-50
2023/07/10 04:01:24;;;;;;;;;;;24.70;88.60;;;;;;5096334;28;19920;-51
2023/07/10 04:03:50;;;;;;;;;;;24.70;88.60;;;;;;5096316;28;19948;-52
2023/07/10 04:06:16;;;;;;;;;;;24.70;88.60;;;;;;5078458;28;19909;-54
2023/07/10 04:08:43;;;;;;;;;;;24.70;88.70;;;;;;5096136;28;20321;-53
2023/07/10 04:11:21;;;;;;;;;;;24.70;88.60;;;;;;5095743;28;19908;-51
2023/07/10 04:13:48;;;;;;;;;;;24.70;88.60;;;;;;5095833;28;19912;-53
2023/07/10 04:16:18;;;;;;;;;;;24.70;88.60;;;;;;5095973;28;20340;-53
2023/07/10 04:18:44;;;;;;;;;;;24.70;88.60;;;;;;5096105;28;19931;-54
2023/07/10 04:21:14;;;;;;;;;;;24.70;88.50;;;;;;5096215;28;19996;-51
2023/07/10 04:23:40;;;;;;;;;;;24.70;88.40;;;;;;5096218;28;19907;-52
2023/07/10 04:26:05;;;;;;;;;;;24.70;88.50;;;;;;5095951;28;19908;-52
2023/07/10 04:28:31;;;;;;;;;;;24.70;88.50;;;;;;5096125;28;20392;-52
2023/07/10 04:30:56;;;;;;;;;;;24.70;88.50;;;;;;5096354;28;19912;-50
2023/07/10 04:33:22;;;;;;;;;;;24.70;88.40;;;;;;5095840;28;19913;-53
2023/07/10 04:35:52;;;;;;;;;;;24.70;88.60;;;;;;5096201;28;20355;-49
2023/07/10 04:38:18;;;;;;;;;;;24.70;88.70;;;;;;5095610;28;19915;-55
2023/07/10 04:40:59;;;;;;;;;;;24.70;89.20;;;;;;5095477;28;19912;-54
2023/07/10 04:43:26;;;;;;;;;;;24.70;88.60;;;;;;5095407;28;20299;-55
2023/07/10 04:45:55;;;;;;;;;;;24.70;88.60;;;;;;5095752;28;19926;-51
2023/07/10 04:48:21;;;;;;;;;;;24.70;88.60;;;;;;5095704;28;19915;-54
2023/07/10 04:50:47;;;;;;;;;;;24.70;88.60;;;;;;5095634;28;19908;-53
2023/07/10 04:53:13;;;;;;;;;;;24.70;88.50;;;;;;5095122;28;20266;-52
2023/07/10 04:55:38;;;;;;;;;;;24.70;88.50;;;;;;5095258;28;19912;-50
2023/07/10 04:58:03;;;;;;;;;;;24.70;88.60;;;;;;5095216;28;19908;-54
2023/07/10 05:00:30;;;;;;;;;;;24.80;88.70;;;;;;5095588;28;19915;-52
2023/07/10 05:02:55;;;;;;;;;;;24.70;88.60;;;;;;5095107;28;19908;-54
2023/07/10 05:05:21;;;;;;;;;;;24.70;88.70;;;;;;5095411;28;19934;-52
2023/07/10 05:07:46;;;;;;;;;;;24.70;88.60;;;;;;5094997;28;19955;-51
2023/07/10 05:10:12;;;;;;;;;;;24.70;89.20;;;;;;5094628;28;19909;-52
2023/07/10 05:12:37;;;;;;;;;;;24.70;88.70;;;;;;5094909;28;19910;-51
2023/07/10 05:15:03;;;;;;;;;;;24.70;88.70;;;;;;5094930;28;19963;-51
2023/07/10 05:17:29;;;;;;;;;;;24.80;88.90;;;;;;5076767;28;19908;-53
2023/07/10 05:19:54;;;;;;;;;;;24.80;88.80;;;;;;5095198;28;19931;-50
2023/07/10 05:22:20;;;;;;;;;;;24.80;88.80;;;;;;5092683;28;19919;-54
2023/07/10 05:24:45;;;;;;;;;;;24.80;88.90;;;;;;5094215;28;19908;-52
2023/07/10 05:27:11;;;;;;;;;;;24.80;89.00;;;;;;5094826;28;20058;-54
2023/07/10 05:29:36;;;;;;;;;;;24.70;88.90;;;;;;5094539;28;20394;-52
2023/07/10 05:32:02;;;;;;;;;;;24.70;88.90;;;;;;5076639;28;19958;-53
2023/07/10 05:34:27;;;;;;;;;;;24.80;89.00;;;;;;5094279;28;19912;-53
2023/07/10 05:36:53;;;;;;;;;;;24.80;89.00;;;;;;5096061;28;19916;-53
2023/07/10 05:39:18;;;;;;;;;;;24.70;88.90;;;;;;5094207;28;20320;-52
2023/07/10 05:41:44;;;;;;;;;;;24.80;89.00;;;;;;5095767;28;19911;-52
2023/07/10 05:44:09;;;;;;;;;;;24.80;89.10;;;;;;5099876;28;20300;-54
2023/07/10 05:46:35;;;;;;;;;;;24.80;89.20;;;;;;5089179;28;19912;-53
2023/07/10 05:49:00;;;;;;;;;;;24.80;86.20;;;;;;5113066;28;19926;-53
2023/07/10 05:51:25;;;;;;;;;;;24.80;85.40;;;;;;5092358;28;20377;-54
2023/07/10 05:53:52;;;;;;;;;;;24.80;85.50;;;;;;5106755;28;19912;-52
2023/07/10 05:56:17;;;;;;;;;;;24.80;87.00;;;;;;5113466;28;19916;-53
2023/07/10 05:58:43;;;;;;;;;;;24.80;87.50;;;;;;5105865;28;20003;-50
2023/07/10 06:01:09;;;;;;;;;;;24.80;88.10;;;;;;5100867;28;19951;-52
2023/07/10 06:03:35;;;;;;;;;;;24.80;88.30;;;;;;5101302;28;19908;-53
2023/07/10 06:06:02;;;;;;;;;;;24.80;88.30;;;;;;5096687;28;19922;-51
2023/07/10 06:08:28;;;;;;;;;;;24.80;88.30;;;;;;5093582;28;20259;-54
2023/07/10 06:10:54;;;;;;;;;;;24.80;88.50;;;;;;5104328;28;19919;-52
2023/07/10 06:13:20;;;;;;;;;;;24.80;88.50;;;;;;5092234;28;19916;-54
2023/07/10 06:15:46;;;;;;;;;;;24.80;88.60;;;;;;5091637;28;19912;-52
2023/07/10 06:18:13;;;;;;;;;;;24.80;88.70;;;;;;5109602;28;20003;-54
2023/07/10 06:20:39;;;;;;;;;;;24.80;88.60;;;;;;5077294;28;19908;-51
2023/07/10 06:23:04;;;;;;;;;;;24.80;88.60;;;;;;5096532;28;19915;-51
2023/07/10 06:25:30;;;;;;;;;;;24.90;88.60;;;;;;5105684;28;20361;-49
2023/07/10 06:27:55;;;;;;;;;;;24.80;88.60;;;;;;5110759;28;20290;-52
2023/07/10 06:30:22;;;;;;;;;;;24.80;88.50;;;;;;5113767;28;19915;-52
2023/07/10 06:32:47;;;;;;;;;;;24.90;88.40;;;;;;5102807;28;20269;-54
2023/07/10 06:35:13;;;;;;;;;;;24.80;88.30;;;;;;5076217;28;19916;-50
2023/07/10 06:37:42;;;;;;;;;;;24.80;88.40;;;;;;5079701;28;19908;-48
2023/07/10 06:40:09;;;;;;;;;;;24.90;89.00;;;;;;5097914;28;19938;-50
2023/07/10 06:42:35;;;;;;;;;;;24.90;88.30;;;;;;5097785;28;19915;-50
2023/07/10 06:45:00;;;;;;;;;;;24.90;88.30;;;;;;5098250;28;19928;-53
2023/07/10 06:47:26;;;;;;;;;;;24.90;88.40;;;;;;5102559;28;20363;-50
2023/07/10 06:49:51;;;;;;;;;;;24.90;88.40;;;;;;5117790;28;19907;-50
2023/07/10 06:52:17;;;;;;;;;;;24.90;88.60;;;;;;5107282;28;19912;-53
2023/07/10 06:54:42;;;;;;;;;;;24.90;88.60;;;;;;5096624;28;20002;-51
2023/07/10 06:57:08;;;;;;;;;;;24.90;88.60;;;;;;5108799;28;19920;-51
2023/07/10 06:59:33;;;;;;;;;;;24.90;89.00;;;;;;5117883;28;19907;-51
2023/07/10 07:01:59;;;;;;;;;;;24.90;88.40;;;;;;5108352;28;19920;-50
2023/07/10 07:04:24;;;;;;;;;;;24.90;88.40;;;;;;5097492;28;20353;-50
2023/07/10 07:06:50;;;;;;;;;;;24.90;88.50;;;;;;5096132;28;19916;-52
2023/07/10 07:09:15;;;;;;;;;;;24.90;88.50;;;;;;5097056;28;19908;-52
2023/07/10 07:11:41;;;;;;;;;;;24.90;88.50;;;;;;5096233;28;19942;-47
2023/07/10 07:14:07;;;;;;;;;;;24.90;88.60;;;;;;5096970;28;19958;-52
2023/07/10 07:16:32;;;;;;;;;;;24.90;88.60;;;;;;5113352;28;19915;-53
2023/07/10 07:18:58;;;;;;;;;;;24.90;88.70;;;;;;5107985;28;19912;-51
2023/07/10 07:21:23;;;;;;;;;;;24.90;88.70;;;;;;5099643;28;20363;-51
2023/07/10 07:23:48;;;;;;;;;;;24.90;88.70;;;;;;5117034;28;19908;-48
2023/07/10 07:26:14;;;;;;;;;;;24.90;88.80;;;;;;5117504;28;20021;-50
2023/07/10 07:28:39;;;;;;;;;;;25.00;88.80;;;;;;5117356;28;20346;-49
2023/07/10 07:31:05;;;;;;;;;;;25.00;88.70;;;;;;5117039;28;19908;-51
2023/07/10 07:33:31;;;;;;;;;;;24.90;88.60;;;;;;5117272;28;19919;-54
2023/07/10 07:35:58;;;;;;;;;;;24.90;88.70;;;;;;5113118;28;20378;-53
2023/07/10 07:38:24;;;;;;;;;;;25.00;88.90;;;;;;5110751;28;19932;-50
2023/07/10 07:40:49;;;;;;;;;;;25.00;89.00;;;;;;5109635;28;20011;-53
2023/07/10 07:43:15;;;;;;;;;;;25.00;88.90;;;;;;5096272;28;19912;-50
2023/07/10 07:45:49;;;;;;;;;;;25.00;89.00;;;;;;5096600;28;19924;-54
2023/07/10 07:48:14;;;;;;;;;;;25.00;88.80;;;;;;5096664;28;20331;-51
2023/07/10 07:50:40;;;;;;;;;;;25.00;88.60;;;;;;5101409;28;20089;-51
2023/07/10 07:53:05;;;;;;;;;;;25.00;88.90;;;;;;5116918;28;20274;-51
2023/07/10 07:55:31;;;;;;;;;;;25.00;88.90;;;;;;5111106;28;19916;-50
2023/07/10 07:57:57;;;;;;;;;;;25.00;89.00;;;;;;5094437;28;19944;-51
2023/07/10 08:00:22;;;;;;;;;;;25.10;89.10;;;;;;5114792;28;19984;-55
2023/07/10 08:02:49;;;;;;;;;;;25.10;89.10;;;;;;5092568;28;19911;-50
2023/07/10 08:05:14;;;;;;;;;;;25.00;89.20;;;;;;5096218;28;19909;-50
2023/07/10 08:07:40;;;;;;;;;;;25.00;89.20;;;;;;5094544;28;19973;-49
2023/07/10 08:10:05;;;;;;;;;;;25.00;89.20;;;;;;5107521;28;19947;-53
2023/07/10 08:12:31;;;;;;;;;;;25.10;89.10;;;;;;5116272;28;19919;-53
2023/07/10 08:14:56;;;;;;;;;;;25.00;89.10;;;;;;5097945;28;19998;-49
2023/07/10 08:17:22;;;;;;;;;;;25.10;89.20;;;;;;5116647;28;19998;-52
2023/07/10 08:19:48;;;;;;;;;;;25.10;89.20;;;;;;5116106;28;20003;-53
2023/07/10 08:22:13;;;;;;;;;;;25.10;89.20;;;;;;5110030;28;19934;-54
2023/07/10 08:24:39;;;;;;;;;;;25.10;89.10;;;;;;5116733;28;20386;-55
2023/07/10 08:27:04;;;;;;;;;;;25.10;89.10;;;;;;5115879;28;19977;-50
2023/07/10 08:29:31;;;;;;;;;;;25.10;89.10;;;;;;5116008;28;20632;-50
2023/07/10 08:31:58;;;;;;;;;;;25.10;89.20;;;;;;5112530;28;19916;-48
2023/07/10 08:34:24;;;;;;;;;;;25.10;89.30;;;;;;5100044;28;19923;-49
2023/07/10 08:36:52;;;;;;;;;;;25.10;89.20;;;;;;5093515;28;19961;-52
2023/07/10 08:39:18;;;;;;;;;;;25.10;89.10;;;;;;5095880;28;20343;-47
2023/07/10 08:41:44;;;;;;;;;;;25.10;88.90;;;;;;5096506;28;20324;-50
2023/07/10 08:44:10;;;;;;;;;;;25.10;88.80;;;;;;5108068;28;19957;-53
2023/07/10 08:46:36;;;;;;;;;;;25.10;88.70;;;;;;5095665;28;20274;-53
2023/07/10 08:49:12;;;;;;;;;;;25.10;88.50;;;;;;5095347;28;19912;-54
2023/07/10 08:51:52;;;;;;;;;;;25.10;88.80;;;;;;5091387;28;19912;-52
2023/07/10 08:54:18;;;;;;;;;;;25.10;88.40;;;;;;5084369;28;19930;-50
2023/07/10 08:56:44;;;;;;;;;;;25.10;88.20;;;;;;5075218;28;20076;-52
2023/07/10 08:59:21;;;;;;;;;;;25.10;88.30;;;;;;5095120;28;20386;-52
2023/07/10 09:01:47;;;;;;;;;;;25.10;88.70;;;;;;5096215;28;20408;-54
2023/07/10 09:04:15;;;;;;;;;;;25.10;88.50;;;;;;5095088;28;19904;-49
2023/07/10 09:06:43;;;;;;;;;;;25.10;88.50;;;;;;5095088;28;19908;-48
2023/07/10 09:09:28;;;;;;;;;;;25.10;88.30;;;;;;5101827;28;19931;-51
2023/07/10 09:11:56;;;;;;;;;;;25.10;88.30;;;;;;5114998;28;19911;-48
2023/07/10 09:14:24;;;;;;;;;;;25.10;88.30;;;;;;5109105;28;19912;-51
2023/07/10 09:16:52;;;;;;;;;;;25.10;88.30;;;;;;5103046;28;19907;-50
2023/07/10 09:19:19;;;;;;;;;;;25.10;88.20;;;;;;5115037;28;19926;-51
2023/07/10 09:21:44;;;;;;;;;;;25.10;88.30;;;;;;5115232;28;20012;-53
2023/07/10 09:24:21;;;;;;;;;;;25.10;88.40;;;;;;5099865;28;19908;-51
2023/07/10 09:26:47;;;;;;;;;;;25.10;88.50;;;;;;5095061;28;19908;-51
2023/07/10 09:29:14;;;;;;;;;;;25.10;88.60;;;;;;5101169;28;19916;-49
2023/07/10 09:31:39;;;;;;;;;;;25.10;88.70;;;;;;5114877;28;20346;-50
2023/07/10 09:34:08;;;;;;;;;;;25.10;88.80;;;;;;5104132;28;20024;-51
2023/07/10 09:36:34;;;;;;;;;;;25.10;88.80;;;;;;5112007;28;19939;-50
2023/07/10 09:39:00;;;;;;;;;;;25.10;88.80;;;;;;5114862;28;20365;-50
2023/07/10 09:41:27;;;;;;;;;;;25.10;88.80;;;;;;5114648;28;19903;-49
2023/07/10 09:43:54;;;;;;;;;;;25.10;89.00;;;;;;5096438;28;19957;-52
2023/07/10 09:46:23;;;;;;;;;;;25.10;89.00;;;;;;5094526;28;19916;-51
2023/07/10 09:48:50;;;;;;;;;;;25.10;89.20;;;;;;5094395;28;19965;-53
2023/07/10 09:51:17;;;;;;;;;;;25.10;89.10;;;;;;5102047;28;19908;-55
2023/07/10 09:53:47;;;;;;;;;;;25.10;89.10;;;;;;5094156;28;19965;-52
2023/07/10 09:56:20;;;;;;;;;;;25.10;89.70;;;;;;5094021;28;20002;-49
2023/07/10 09:58:46;;;;;;;;;;;25.10;89.20;;;;;;5094408;28;19908;-53
2023/07/10 10:01:11;;;;;;;;;;;25.10;89.20;;;;;;5094056;28;19908;-51
2023/07/10 10:03:39;;;;;;;;;;;25.20;89.30;;;;;;5094313;28;19904;-52
2023/07/10 10:06:04;;;;;;;;;;;25.20;89.30;;;;;;5106718;28;19994;-52
2023/07/10 10:08:31;;;;;;;;;;;25.20;89.40;;;;;;5100721;28;20339;-46
2023/07/10 10:11:01;;;;;;;;;;;25.10;89.40;;;;;;5074852;28;20256;-53
2023/07/10 10:13:29;;;;;;;;;;;25.10;89.40;;;;;;5094167;28;19914;-54
2023/07/10 10:16:03;;;;;;;;;;;25.10;89.40;;;;;;5103331;28;20018;-54
2023/07/10 10:18:29;;;;;;;;;;;25.20;89.50;;;;;;5091401;28;20358;-51
2023/07/10 10:20:54;;;;;;;;;;;25.10;89.50;;;;;;5114142;28;20048;-52
2023/07/10 10:23:28;;;;;;;;;;;25.10;89.60;;;;;;5103094;28;20367;-51
2023/07/10 10:25:57;;;;;;;;;;;25.10;89.60;;;;;;5092876;28;19912;-51
2023/07/10 10:28:32;;;;;;;;;;;25.20;89.70;;;;;;5109359;28;19919;-53
2023/07/10 10:31:01;;;;;;;;;;;25.20;89.70;;;;;;5098080;28;20286;-53
2023/07/10 10:33:27;;;;;;;;;;;25.10;89.70;;;;;;5096812;28;19916;-52
2023/07/10 10:35:57;;;;;;;;;;;25.20;89.80;;;;;;5075682;28;19912;-53
2023/07/10 10:38:25;;;;;;;;;;;25.20;89.80;;;;;;5091593;28;20363;-51
2023/07/10 10:41:00;;;;;;;;;;;25.20;89.80;;;;;;5093461;28;20298;-54
2023/07/10 10:43:29;;;;;;;;;;;25.20;90.10;;;;;;5094247;28;19915;-54
2023/07/10 10:45:59;;;;;;;;;;;25.20;89.70;;;;;;5076301;28;19986;-55
2023/07/10 10:48:31;;;;;;;;;;;25.20;89.80;;;;;;5101696;28;19912;-52
2023/07/10 10:51:15;;;;;;;;;;;25.10;89.70;;;;;;5105702;28;20065;-54
2023/07/10 10:53:52;;;;;;;;;;;25.10;89.70;;;;;;5091954;28;20362;-54
2023/07/10 10:56:22;;;;;;;;;;;25.10;89.70;;;;;;5093309;28;19912;-53
2023/07/10 10:58:48;;;;;;;;;;;25.10;89.70;;;;;;5091885;28;19912;-51
2023/07/10 11:01:30;;;;;;;;;;;25.20;89.80;;;;;;5093854;28;19908;-52
2023/07/10 11:03:58;;;;;;;;;;;25.20;89.70;;;;;;5093890;28;19909;-53
2023/07/10 11:06:29;;;;;;;;;;;25.10;89.60;;;;;;5073005;28;19915;-49
2023/07/10 11:08:58;;;;;;;;;;;25.20;89.60;;;;;;5072825;28;19909;-50
2023/07/10 11:11:26;;;;;;;;;;;25.20;89.60;;;;;;5073365;28;19951;-55
2023/07/10 11:13:52;;;;;;;;;;;25.20;89.60;;;;;;5055257;28;20333;-55
2023/07/10 11:16:18;;;;;;;;;;;25.20;89.60;;;;;;5086475;28;19969;-52
2023/07/10 11:18:44;;;;;;;;;;;25.20;89.70;;;;;;5093237;28;20061;-55
2023/07/10 11:21:09;;;;;;;;;;;25.20;89.70;;;;;;5094111;28;19986;-53
2023/07/10 11:23:35;;;;;;;;;;;25.20;89.80;;;;;;5106715;28;20012;-55
2023/07/10 11:26:08;;;;;;;;;;;25.20;89.70;;;;;;5091141;28;19916;-52
2023/07/10 11:28:34;;;;;;;;;;;25.20;89.70;;;;;;5114054;28;20003;-52
2023/07/10 11:31:18;;;;;;;;;;;25.20;89.80;;;;;;5116902;28;20248;-53
2023/07/10 11:33:48;;;;;;;;;;;25.20;89.80;;;;;;5099357;28;19916;-51
2023/07/10 11:36:29;;;;;;;;;;;25.20;89.80;;;;;;5117459;28;19912;-53
2023/07/10 11:38:56;;;;;;;;;;;25.20;89.80;;;;;;5117343;28;19914;-53
2023/07/10 11:41:24;;;;;;;;;;;25.20;89.70;;;;;;5114649;28;19916;-53
2023/07/10 11:43:52;;;;;;;;;;;25.20;89.80;;;;;;5103468;28;19919;-51
2023/07/10 11:46:22;;;;;;;;;;;25.20;89.90;;;;;;5079325;28;20332;-52
2023/07/10 11:49:00;;;;;;;;;;;25.20;89.90;;;;;;5116842;28;20429;-54
2023/07/10 11:51:27;;;;;;;;;;;25.20;90.00;;;;;;5117060;28;19939;-53
2023/07/10 11:54:04;;;;;;;;;;;25.30;90.00;;;;;;5117277;28;19911;-54
2023/07/10 11:56:31;;;;;;;;;;;25.30;90.00;;;;;;5102295;28;19974;-52
2023/07/10 11:58:59;;;;;;;;;;;25.30;89.90;;;;;;5101585;28;19912;-48
2023/07/10 12:01:26;;;;;;;;;;;25.30;89.90;;;;;;5095646;28;19912;-56
2023/07/10 12:03:55;;;;;;;;;;;25.20;89.90;;;;;;5102320;28;19912;-53
2023/07/10 12:06:22;;;;;;;;;;;25.30;90.00;;;;;;5114063;28;19907;-53
2023/07/10 12:08:48;;;;;;;;;;;25.30;90.00;;;;;;5114064;28;19919;-54
2023/07/10 12:11:28;;;;;;;;;;;25.30;90.00;;;;;;5116341;28;20371;-57
2023/07/10 12:13:53;;;;;;;;;;;25.30;90.10;;;;;;5111853;28;19919;-52
2023/07/10 12:16:19;;;;;;;;;;;25.30;90.10;;;;;;5095800;28;20343;-51
2023/07/10 12:18:45;;;;;;;;;;;25.30;90.10;;;;;;5095940;28;19908;-54
2023/07/10 12:21:11;;;;;;;;;;;25.30;90.10;;;;;;5095048;28;19908;-55
2023/07/10 12:23:37;;;;;;;;;;;25.30;90.10;;;;;;5104538;28;19919;-51
2023/07/10 12:26:04;;;;;;;;;;;25.30;90.10;;;;;;5115940;28;20295;-51
2023/07/10 12:28:30;;;;;;;;;;;25.30;90.10;;;;;;5116345;28;19908;-51
2023/07/10 12:30:56;;;;;;;;;;;25.30;90.10;;;;;;5098122;28;19915;-54
2023/07/10 12:33:31;;;;;;;;;;;25.30;90.10;;;;;;5103242;28;19920;-50
2023/07/10 12:36:00;;;;;;;;;;;25.30;90.10;;;;;;5108536;28;19951;-54
2023/07/10 12:38:26;;;;;;;;;;;25.30;90.10;;;;;;5115987;28;19912;-54
2023/07/10 12:40:51;;;;;;;;;;;25.30;90.10;;;;;;5095342;28;19916;-53
2023/07/10 12:43:21;;;;;;;;;;;25.30;90.10;;;;;;5104990;28;20397;-53
2023/07/10 12:45:54;;;;;;;;;;;25.30;90.00;;;;;;5102633;28;19981;-51
2023/07/10 12:48:19;;;;;;;;;;;25.30;90.10;;;;;;5107845;28;20291;-56
2023/07/10 12:50:46;;;;;;;;;;;25.30;90.10;;;;;;5093058;28;19912;-49
2023/07/10 12:53:19;;;;;;;;;;;25.30;90.10;;;;;;5095089;28;19916;-53
2023/07/10 12:55:46;;;;;;;;;;;25.30;90.10;;;;;;5113439;28;19916;-52
2023/07/10 12:58:17;;;;;;;;;;;25.30;90.10;;;;;;5108855;28;20130;-49
2023/07/10 13:00:54;;;;;;;;;;;25.30;90.10;;;;;;5094065;28;19934;-49
2023/07/10 13:03:23;;;;;;;;;;;25.30;90.10;;;;;;5080303;28;19916;-49
2023/07/10 13:05:57;;;;;;;;;;;25.30;90.10;;;;;;5099742;28;19919;-51
2023/07/10 13:08:24;;;;;;;;;;;25.30;90.10;;;;;;5094984;28;19920;-46
2023/07/10 13:10:51;;;;;;;;;;;25.30;90.10;;;;;;5115245;28;20009;-48
2023/07/10 13:13:18;;;;;;;;;;;25.30;90.10;;;;;;5112870;28;19959;-45
2023/07/10 13:15:44;;;;;;;;;;;25.30;90.10;;;;;;5115376;28;19915;-48
2023/07/10 13:18:15;;;;;;;;;;;25.30;90.20;;;;;;5095929;28;20382;-47
2023/07/10 13:20:41;;;;;;;;;;;25.30;90.20;;;;;;5094516;28;19961;-50
2023/07/10 13:23:06;;;;;;;;;;;25.30;90.20;;;;;;5100173;28;20358;-47
2023/07/10 13:25:33;;;;;;;;;;;25.30;90.20;;;;;;5099977;28;19912;-49
2023/07/10 13:27:58;;;;;;;;;;;25.30;90.20;;;;;;5094697;28;19916;-50
2023/07/10 13:30:25;;;;;;;;;;;25.40;90.20;;;;;;5095104;28;20282;-48
2023/07/10 13:32:50;;;;;;;;;;;25.30;90.20;;;;;;5107610;28;19966;-44
2023/07/10 13:35:16;;;;;;;;;;;25.30;90.20;;;;;;5094689;28;19915;-49
2023/07/10 13:37:42;;;;;;;;;;;25.30;90.20;;;;;;5094344;28;19912;-46
2023/07/10 13:40:11;;;;;;;;;;;25.40;90.30;;;;;;5102114;28;19938;-47
2023/07/10 13:42:37;;;;;;;;;;;25.30;90.20;;;;;;5114540;28;19915;-50
2023/07/10 13:45:02;;;;;;;;;;;25.40;90.20;;;;;;5109344;28;20310;-48
2023/07/10 13:47:28;;;;;;;;;;;25.40;90.20;;;;;;5074807;28;19919;-51
2023/07/10 13:49:55;;;;;;;;;;;25.30;90.20;;;;;;5103023;28;19911;-49
2023/07/10 13:52:22;;;;;;;;;;;25.40;90.30;;;;;;5114562;28;20369;-47
2023/07/10 13:54:48;;;;;;;;;;;25.40;90.30;;;;;;5114174;28;20003;-49
2023/07/10 13:57:16;;;;;;;;;;;25.40;90.30;;;;;;5109763;28;19919;-50
2023/07/10 13:59:41;;;;;;;;;;;25.40;90.30;;;;;;5089142;28;19920;-49
2023/07/10 14:02:19;;;;;;;;;;;25.40;90.30;;;;;;5099397;28;20091;-49
2023/07/10 14:04:47;;;;;;;;;;;25.40;90.30;;;;;;5091815;28;19929;-53
2023/07/10 14:07:13;;;;;;;;;;;25.40;90.30;;;;;;5096886;28;19914;-50
2023/07/10 14:09:38;;;;;;;;;;;25.40;90.20;;;;;;5093848;28;19920;-47
2023/07/10 14:12:04;;;;;;;;;;;25.40;90.20;;;;;;5093906;28;20287;-49
2023/07/10 14:14:29;;;;;;;;;;;25.40;90.20;;;;;;5100140;28;19916;-51
2023/07/10 14:16:55;;;;;;;;;;;25.40;90.20;;;;;;5077223;28;20386;-48